Weather reports worldwide

Advertisment
Sarpsborg, Norway (1493): temperature & dewpoint: 25.09.2020 15:00:00 - 01.10.2020 15:00:00 (CEST)Sarpsborg, Norway (1493): wind speed & gusts: 25.09.2020 15:00:00 - 01.10.2020 15:00:00 (CEST)Sarpsborg, Norway (1493): wind direction: 25.09.2020 15:00:00 - 01.10.2020 15:00:00 (CEST)
Date & Time tt [°C] td [°C] ff [km/h] ff [kn] fx [km/h] fx [kn] dd
01.10.2020 15:00:00 12,6 8,5 19 10 32 17 ENE
01.10.2020 14:00:00 12,9 8,1 18 10 35 19 E
01.10.2020 13:00:00 - - - - - - -
01.10.2020 12:00:00 12,9 8,0 17 9 33 18 E
01.10.2020 11:00:00 12,0 9,0 11 6 29 16 E
01.10.2020 10:00:00 11,9 9,4 17 9 33 18 E
01.10.2020 09:00:00 - - - - - - -
01.10.2020 08:00:00 11,6 9,6 16 9 33 18 E
01.10.2020 07:00:00 11,4 9,5 17 9 24 13 E
01.10.2020 06:00:00 12,1 9,9 10 6 17 9 E
01.10.2020 05:00:00 - - - - - - -
01.10.2020 04:00:00 12,7 9,9 11 6 16 9 E
01.10.2020 03:00:00 12,9 9,8 11 6 16 9 E
01.10.2020 02:00:00 12,9 9,9 5 3 12 6 ESE
01.10.2020 01:00:00 12,9 10,0 10 5 16 9 E
01.10.2020 00:00:00 13,0 10,1 11 6 14 8 E
30.09.2020 23:00:00 - - - - - - -
30.09.2020 22:00:00 12,6 10,2 8 5 12 7 E
30.09.2020 21:00:00 12,7 10,4 9 5 13 7 E
30.09.2020 20:00:00 13,4 10,7 10 5 14 7 E
30.09.2020 19:00:00 14,5 11,6 6 3 13 7 SE
30.09.2020 18:00:00 15,0 11,1 8 4 12 7 E
30.09.2020 17:00:00 - - - - - - -
30.09.2020 16:00:00 15,3 10,8 11 6 17 9 SSE
30.09.2020 15:00:00 15,3 10,3 10 6 23 12 SE
30.09.2020 14:00:00 15,4 9,7 11 6 19 10 SE
30.09.2020 13:00:00 15,0 10,0 10 5 18 10 SE
30.09.2020 12:00:00 14,4 10,6 9 5 16 9 SE
30.09.2020 11:00:00 - - - - - - -
30.09.2020 10:00:00 12,7 10,5 5 3 12 6 ESE
30.09.2020 09:00:00 10,9 9,7 7 4 10 5 ENE
30.09.2020 08:00:00 9,8 8,6 6 4 9 5 NE
30.09.2020 07:00:00 9,4 8,3 7 4 10 5 ENE
30.09.2020 06:00:00 8,9 7,9 5 3 10 5 NE
30.09.2020 05:00:00 - - - - - - -
30.09.2020 04:00:00 8,9 8,0 8 4 10 6 ENE
30.09.2020 03:00:00 9,1 8,1 6 3 8 4 ENE
30.09.2020 02:00:00 9,3 8,4 5 3 10 5 ENE
30.09.2020 01:00:00 9,3 8,4 8 4 10 5 ENE
30.09.2020 00:00:00 9,8 8,9 7 4 9 5 ENE
29.09.2020 23:00:00 10,1 9,1 8 4 10 5 ENE
29.09.2020 22:00:00 10,5 9,6 8 4 9 5 ENE
29.09.2020 21:00:00 11,2 10,1 6 3 9 5 ENE
29.09.2020 20:00:00 12,0 10,5 6 3 8 5 NE
29.09.2020 19:00:00 13,5 10,7 5 3 10 5 SW
29.09.2020 18:00:00 14,3 10,8 8 4 17 9 SW
29.09.2020 17:00:00 - - - - - - -
29.09.2020 16:00:00 15,0 11,1 13 7 20 11 SSW
29.09.2020 15:00:00 14,3 12,3 6 3 11 6 SSW
29.09.2020 14:00:00 14,1 12,0 8 4 19 10 S
29.09.2020 13:00:00 14,0 12,5 9 5 20 11 S
29.09.2020 12:00:00 - - - - - - -
29.09.2020 11:00:00 13,0 12,0 4 2 11 6 S
29.09.2020 10:00:00 13,0 12,1 6 4 14 8 S
29.09.2020 09:00:00 12,6 11,8 6 3 10 5 E
29.09.2020 08:00:00 12,5 11,7 9 5 13 7 E
29.09.2020 07:00:00 12,4 11,5 8 4 12 7 E
29.09.2020 06:00:00 12,4 11,5 7 4 13 7 E
29.09.2020 05:00:00 12,5 11,5 8 4 14 8 E
29.09.2020 04:00:00 12,4 11,5 8 4 11 6 NE
29.09.2020 03:00:00 12,4 11,4 7 4 11 6 ENE
29.09.2020 02:00:00 12,5 11,2 8 5 15 8 ENE
29.09.2020 01:00:00 12,5 10,9 10 5 16 9 ENE
29.09.2020 00:00:00 12,5 10,6 10 5 18 10 ENE
28.09.2020 23:00:00 12,4 10,4 8 4 15 8 NE
28.09.2020 22:00:00 12,4 10,4 10 6 16 9 ENE
28.09.2020 21:00:00 12,6 10,2 12 7 20 11 E
28.09.2020 20:00:00 13,0 10,4 12 7 19 10 E
28.09.2020 19:00:00 13,3 10,4 8 5 19 10 E
28.09.2020 18:00:00 13,5 10,2 10 5 18 10 ENE
28.09.2020 17:00:00 13,6 10,2 10 5 18 10 ENE
28.09.2020 16:00:00 13,7 10,1 9 5 20 11 ENE
28.09.2020 15:00:00 13,9 10,1 13 7 20 11 E
28.09.2020 14:00:00 13,7 10,0 11 6 24 13 NE
28.09.2020 13:00:00 12,9 9,6 15 8 26 14 NE
28.09.2020 12:00:00 12,3 9,4 15 8 25 13 NE
28.09.2020 11:00:00 11,5 9,0 15 8 26 14 NE
28.09.2020 10:00:00 11,3 9,0 16 9 30 16 NE
28.09.2020 09:00:00 11,2 8,9 16 9 25 14 ENE
28.09.2020 08:00:00 11,2 9,0 14 7 23 12 NE
28.09.2020 07:00:00 - - - - - - -
28.09.2020 06:00:00 11,3 8,9 13 7 24 13 NNE
28.09.2020 05:00:00 - - - - - - -
28.09.2020 04:00:00 11,6 9,1 15 8 25 13 N
28.09.2020 03:00:00 11,8 9,3 15 8 23 13 N
28.09.2020 02:00:00 11,9 9,5 13 7 22 12 N
28.09.2020 01:00:00 12,1 9,8 11 6 23 13 NNE
28.09.2020 00:00:00 12,2 9,8 14 7 24 13 NNE
27.09.2020 23:00:00 12,4 9,9 12 6 24 13 NNE
27.09.2020 22:00:00 12,7 10,0 12 6 27 14 NNE
27.09.2020 21:00:00 13,1 10,2 17 9 29 16 NNE
27.09.2020 20:00:00 13,6 10,7 14 8 28 15 NNE
27.09.2020 19:00:00 13,8 11,0 12 6 25 14 NNE
27.09.2020 18:00:00 14,0 10,9 14 8 26 14 N
27.09.2020 17:00:00 14,2 10,9 15 8 26 14 N
27.09.2020 16:00:00 14,2 10,7 15 8 22 12 N
27.09.2020 15:00:00 14,1 10,7 15 8 24 13 NNE
27.09.2020 14:00:00 13,6 10,3 13 7 28 15 NNE
27.09.2020 13:00:00 12,5 9,7 14 8 27 14 NNE
27.09.2020 12:00:00 11,8 9,2 13 7 26 14 NNE
27.09.2020 11:00:00 - - - - - - -
27.09.2020 10:00:00 10,6 8,4 17 9 31 17 N
27.09.2020 09:00:00 10,1 8,0 16 9 30 16 NNE
27.09.2020 08:00:00 10,0 7,8 19 10 30 16 NNE
27.09.2020 07:00:00 9,8 7,5 16 8 34 18 NNE
27.09.2020 06:00:00 9,7 7,3 16 9 - - NNE
27.09.2020 05:00:00 - - - - - - -
27.09.2020 04:00:00 9,6 7,0 18 10 - - N
27.09.2020 03:00:00 9,6 7,0 20 11 - - NNE
27.09.2020 02:00:00 9,6 7,1 18 10 36 19 NNE
27.09.2020 01:00:00 9,6 7,2 21 11 39 21 NNE
27.09.2020 00:00:00 9,7 7,2 20 11 34 18 NNE
26.09.2020 23:00:00 - - - - - - -
26.09.2020 22:00:00 9,7 7,1 20 11 42 23 NNE
26.09.2020 21:00:00 9,7 7,2 20 11 39 21 NNE
26.09.2020 20:00:00 9,7 7,2 19 10 37 20 NNE
26.09.2020 19:00:00 9,6 7,3 22 12 38 20 NNE
26.09.2020 18:00:00 9,6 7,5 16 9 35 19 NNE
26.09.2020 17:00:00 9,4 7,4 19 10 35 19 NNE
26.09.2020 16:00:00 9,1 7,5 19 11 35 19 NNE
26.09.2020 15:00:00 - - - - - - -
26.09.2020 14:00:00 8,8 7,0 19 11 44 24 NNE
26.09.2020 13:00:00 8,3 7,0 22 12 42 23 NNE
26.09.2020 12:00:00 8,3 6,7 19 10 46 25 NNE
26.09.2020 11:00:00 - - - - - - -
26.09.2020 10:00:00 7,4 6,1 24 13 44 24 N
26.09.2020 09:00:00 7,2 5,9 23 12 41 22 N
26.09.2020 08:00:00 7,1 5,7 24 13 45 24 N
26.09.2020 07:00:00 7,2 5,7 22 12 44 24 N
26.09.2020 06:00:00 7,4 5,9 22 12 45 24 NNE
26.09.2020 05:00:00 7,7 6,1 25 14 51 28 NNE
26.09.2020 04:00:00 8,0 6,4 26 14 49 26 NNE
26.09.2020 03:00:00 8,3 6,8 27 15 54 29 NNE
26.09.2020 02:00:00 8,7 7,2 30 16 53 28 N
26.09.2020 01:00:00 9,2 7,4 28 15 55 30 N
26.09.2020 00:00:00 10,0 8,1 27 15 46 25 N
25.09.2020 23:00:00 - - - - - - -
25.09.2020 22:00:00 12,4 7,9 16 9 33 18 NNE
25.09.2020 21:00:00 12,6 8,2 21 11 33 18 NNE
25.09.2020 20:00:00 12,7 9,0 16 9 27 14 NNE
25.09.2020 19:00:00 12,9 9,4 18 10 34 18 NE
25.09.2020 18:00:00 12,9 9,6 16 9 29 16 NNE
25.09.2020 17:00:00 - - - - - - -
25.09.2020 16:00:00 - - - - - - -
25.09.2020 15:00:00 13,9 10,4 13 7 24 13 NNE

tt = temperature
td = dewpoint
ff = wind speed
fx = gusts
dd = wind direction

Next stations